createdAt,value
2022-12-03T00:00:41.568Z,74.53
2022-12-03T00:03:08.747Z,74.85
2022-12-03T00:05:35.850Z,74.65
2022-12-03T00:08:04.437Z,74.62
2022-12-03T00:10:31.507Z,74.91
2022-12-03T00:12:58.510Z,74.64
2022-12-03T00:15:25.497Z,74.50
2022-12-03T00:17:52.545Z,74.63
2022-12-03T00:20:22.636Z,74.45
2022-12-03T00:22:50.295Z,74.52
2022-12-03T00:25:17.744Z,74.29
2022-12-03T00:27:44.763Z,74.12
2022-12-03T00:30:13.690Z,74.08
2022-12-03T00:32:41.758Z,74.26
2022-12-03T00:35:09.383Z,74.24
2022-12-03T00:37:36.530Z,74.32
2022-12-03T00:40:05.593Z,74.46
2022-12-03T00:42:32.554Z,74.66
2022-12-03T00:44:59.624Z,74.16
2022-12-03T00:47:26.683Z,74.28
2022-12-03T00:49:53.637Z,74.50
2022-12-03T00:52:20.636Z,74.72
2022-12-03T00:54:49.119Z,74.94
2022-12-03T00:57:16.330Z,74.70
2022-12-03T00:59:43.301Z,74.23
2022-12-03T01:02:10.406Z,74.14
2022-12-03T01:04:37.658Z,74.07
2022-12-03T01:07:04.913Z,74.23
2022-12-03T01:09:31.978Z,74.24
2022-12-03T01:11:59.024Z,74.05
2022-12-03T01:14:26.375Z,74.26
2022-12-03T01:16:53.342Z,73.93
2022-12-03T01:19:20.404Z,74.09
2022-12-03T01:21:50.011Z,72.57
2022-12-03T01:24:17.921Z,71.59
2022-12-03T01:26:45.073Z,71.72
2022-12-03T01:29:12.076Z,71.50
2022-12-03T01:31:57.606Z,71.85
2022-12-03T01:34:24.519Z,72.19
2022-12-03T01:36:52.643Z,72.64
2022-12-03T01:39:20.051Z,72.87
2022-12-03T01:41:48.873Z,73.00
2022-12-03T01:44:25.905Z,72.95
2022-12-03T01:46:55.826Z,73.15
2022-12-03T01:49:26.659Z,73.21
2022-12-03T01:51:54.956Z,73.25
2022-12-03T01:54:31.420Z,73.44
2022-12-03T01:56:58.770Z,73.18
2022-12-03T01:59:34.117Z,73.04
2022-12-03T02:02:11.703Z,73.40
2022-12-03T02:04:38.979Z,73.34
2022-12-03T02:07:32.916Z,73.43
2022-12-03T02:10:02.436Z,73.22
2022-12-03T02:12:37.765Z,73.54
2022-12-03T02:15:07.256Z,73.51
2022-12-03T02:17:34.861Z,73.47
2022-12-03T02:20:05.586Z,73.44
2022-12-03T02:22:57.068Z,73.77
2022-12-03T02:25:27.669Z,73.85
2022-12-03T02:27:55.502Z,73.53
2022-12-03T02:30:25.074Z,73.71
2022-12-03T02:32:53.406Z,73.67
2022-12-03T02:35:23.623Z,73.75
2022-12-03T02:37:58.441Z,74.06
2022-12-03T02:40:29.294Z,74.17
2022-12-03T02:43:00.021Z,74.28
2022-12-03T02:45:38.325Z,74.09
2022-12-03T02:48:05.181Z,74.01
2022-12-03T02:50:35.725Z,74.23
2022-12-03T02:53:11.986Z,74.05
2022-12-03T02:55:40.570Z,74.04
2022-12-03T02:58:07.805Z,74.38
2022-12-03T03:00:36.152Z,74.04
2022-12-03T03:03:05.982Z,73.63
2022-12-03T03:05:33.709Z,73.44
2022-12-03T03:08:01.757Z,73.03
2022-12-03T03:10:29.848Z,72.46
2022-12-03T03:12:57.327Z,72.51
2022-12-03T03:15:25.426Z,72.43
2022-12-03T03:17:52.555Z,72.20
2022-12-03T03:20:19.864Z,72.32
2022-12-03T03:22:46.833Z,72.43
2022-12-03T03:25:17.220Z,72.76
2022-12-03T03:27:45.232Z,72.92
2022-12-03T03:30:13.623Z,72.98
2022-12-03T03:32:42.151Z,73.29
2022-12-03T03:35:10.965Z,73.17
2022-12-03T03:37:39.240Z,73.64
2022-12-03T03:40:09.450Z,73.37
2022-12-03T03:42:38.038Z,73.00
2022-12-03T03:45:07.361Z,72.75
2022-12-03T03:47:34.580Z,72.62
2022-12-03T03:50:02.168Z,73.38
2022-12-03T03:52:29.294Z,73.52
2022-12-03T03:54:56.540Z,72.85
2022-12-03T03:57:23.634Z,72.23
2022-12-03T03:59:50.644Z,72.28
2022-12-03T04:02:22.279Z,72.22
2022-12-03T04:04:50.220Z,72.75
2022-12-03T04:07:17.780Z,73.48
2022-12-03T04:09:44.829Z,74.81
2022-12-03T04:12:52.826Z,74.65
2022-12-03T04:15:19.861Z,74.20
2022-12-03T04:18:06.752Z,73.82
2022-12-03T04:20:33.757Z,73.62
2022-12-03T04:23:00.637Z,73.97
2022-12-03T04:25:46.363Z,73.98
2022-12-03T04:28:32.086Z,73.94
2022-12-03T04:30:59.709Z,74.28
2022-12-03T04:33:45.333Z,74.06
2022-12-03T04:36:12.263Z,74.37
2022-12-03T04:38:39.201Z,74.07
2022-12-03T04:41:06.340Z,74.06
2022-12-03T04:43:55.146Z,74.06
2022-12-03T04:46:22.189Z,74.46
2022-12-03T04:48:49.160Z,74.00
2022-12-03T04:51:16.190Z,74.10
2022-12-03T04:53:46.170Z,74.25
2022-12-03T04:56:13.376Z,74.02
2022-12-03T04:58:40.329Z,73.85
2022-12-03T05:01:07.351Z,73.85
2022-12-03T05:03:34.303Z,73.82
2022-12-03T05:06:01.251Z,73.87
2022-12-03T05:08:28.239Z,73.71
2022-12-03T05:10:55.190Z,73.44
2022-12-03T05:13:22.242Z,73.23
2022-12-03T05:15:49.233Z,72.94
2022-12-03T05:18:16.237Z,73.59
2022-12-03T05:20:45.842Z,73.36
2022-12-03T05:23:18.398Z,73.53
2022-12-03T05:25:45.442Z,73.67
2022-12-03T05:28:12.317Z,72.50
2022-12-03T05:30:39.432Z,72.10
2022-12-03T05:33:06.611Z,71.89
2022-12-03T05:35:33.746Z,72.21
2022-12-03T05:38:00.831Z,72.48
2022-12-03T05:40:27.809Z,72.62
2022-12-03T05:42:54.874Z,72.86
2022-12-03T05:45:31.624Z,72.79
2022-12-03T05:47:59.871Z,73.49
2022-12-03T05:50:29.226Z,73.50
2022-12-03T05:52:57.254Z,73.68
2022-12-03T05:55:24.963Z,74.27
2022-12-03T05:57:52.179Z,75.46
2022-12-03T06:00:25.126Z,74.42
2022-12-03T06:02:52.962Z,74.03
2022-12-03T06:05:20.945Z,74.14
2022-12-03T06:07:50.156Z,74.27
2022-12-03T06:10:20.027Z,74.99
2022-12-03T06:12:47.064Z,74.71
2022-12-03T06:15:14.341Z,73.69
2022-12-03T06:17:41.648Z,73.28
2022-12-03T06:20:10.880Z,73.58
2022-12-03T06:22:37.864Z,73.68
2022-12-03T06:25:07.190Z,74.08
2022-12-03T06:27:34.574Z,74.11
2022-12-03T06:30:01.906Z,73.43
2022-12-03T06:32:28.966Z,73.14
2022-12-03T06:34:56.118Z,73.50
2022-12-03T06:37:23.195Z,71.98
2022-12-03T06:39:50.613Z,72.06
2022-12-03T06:42:17.606Z,72.37
2022-12-03T06:44:44.697Z,72.26
2022-12-03T06:47:11.668Z,71.99
2022-12-03T06:49:38.713Z,71.65
2022-12-03T06:52:05.817Z,71.61
2022-12-03T06:54:32.887Z,71.93
2022-12-03T06:57:00.389Z,72.87
2022-12-03T06:59:27.474Z,73.09
2022-12-03T07:01:54.422Z,73.71
2022-12-03T07:04:21.432Z,73.86
2022-12-03T07:06:48.437Z,74.01
2022-12-03T07:09:17.123Z,73.50
2022-12-03T07:11:44.170Z,74.58
2022-12-03T07:14:11.623Z,75.02
2022-12-03T07:16:39.443Z,74.80
2022-12-03T07:19:06.991Z,74.51
2022-12-03T07:21:34.165Z,75.48
2022-12-03T07:24:01.410Z,75.08
2022-12-03T07:26:28.500Z,75.03
2022-12-03T07:28:55.883Z,74.57
2022-12-03T07:31:23.077Z,74.43
2022-12-03T07:33:50.414Z,74.04
2022-12-03T07:36:17.544Z,73.91
2022-12-03T07:38:44.987Z,73.92
2022-12-03T07:41:12.044Z,74.37
2022-12-03T07:43:39.001Z,74.94
2022-12-03T07:46:06.414Z,75.10
2022-12-03T07:48:33.514Z,74.59
2022-12-03T07:51:00.426Z,73.29
2022-12-03T07:53:27.532Z,73.52
2022-12-03T07:55:54.678Z,73.69
2022-12-03T07:58:21.640Z,73.11
2022-12-03T08:00:48.865Z,72.80
2022-12-03T08:03:16.131Z,73.30
2022-12-03T08:05:43.204Z,73.50
2022-12-03T08:08:10.232Z,73.47
2022-12-03T08:10:37.236Z,73.95
2022-12-03T08:13:11.353Z,74.10
2022-12-03T08:15:39.658Z,72.87
2022-12-03T08:18:22.470Z,72.80
2022-12-03T08:20:51.463Z,72.17
2022-12-03T08:23:21.111Z,72.06
2022-12-03T08:25:48.980Z,72.13
2022-12-03T08:28:29.184Z,72.63
2022-12-03T08:31:00.544Z,72.69
2022-12-03T08:33:33.722Z,73.15
2022-12-03T08:36:06.236Z,73.94
2022-12-03T08:38:33.921Z,74.86
2022-12-03T08:41:01.023Z,74.67
2022-12-03T08:43:31.960Z,74.41
2022-12-03T08:45:59.066Z,73.49
2022-12-03T08:48:37.230Z,73.48
2022-12-03T08:51:25.679Z,74.57
2022-12-03T08:54:04.539Z,74.50
2022-12-03T08:56:36.144Z,73.89
2022-12-03T08:59:26.128Z,74.62
2022-12-03T09:01:56.208Z,74.59
2022-12-03T09:04:30.972Z,74.39
2022-12-03T09:06:58.844Z,73.88
2022-12-03T09:09:26.058Z,73.68
2022-12-03T09:11:54.212Z,74.07
2022-12-03T09:14:22.857Z,74.29
2022-12-03T09:16:52.206Z,74.22
2022-12-03T09:19:19.415Z,74.31
2022-12-03T09:21:46.415Z,74.45
2022-12-03T09:24:13.466Z,73.52
2022-12-03T09:26:40.540Z,72.78
2022-12-03T09:29:11.905Z,71.95
2022-12-03T09:31:39.603Z,71.43
2022-12-03T09:34:07.378Z,71.58
2022-12-03T09:36:34.525Z,71.81
2022-12-03T09:39:01.742Z,71.71
2022-12-03T09:41:29.046Z,72.81
2022-12-03T09:44:05.283Z,73.41
2022-12-03T09:46:34.697Z,74.24
2022-12-03T09:49:03.188Z,74.76
2022-12-03T09:51:34.620Z,74.31
2022-12-03T09:54:06.944Z,74.57
2022-12-03T09:56:37.903Z,73.89
2022-12-03T09:59:14.861Z,73.49
2022-12-03T10:01:42.623Z,73.66
2022-12-03T10:04:10.207Z,73.22
2022-12-03T10:06:43.975Z,73.41
2022-12-03T10:09:14.854Z,72.94
2022-12-03T10:11:42.191Z,73.02
2022-12-03T10:14:14.088Z,73.39
2022-12-03T10:16:42.276Z,73.33
2022-12-03T10:19:18.247Z,73.55
2022-12-03T10:21:45.532Z,74.53
2022-12-03T10:24:26.047Z,74.59
2022-12-03T10:26:58.165Z,75.12
2022-12-03T10:29:33.922Z,74.82
2022-12-03T10:32:06.424Z,75.25
2022-12-03T10:34:41.734Z,75.11
2022-12-03T10:37:22.713Z,74.91
2022-12-03T10:39:56.600Z,74.68
2022-12-03T10:42:28.605Z,74.77
2022-12-03T10:45:20.143Z,74.50
2022-12-03T10:48:06.605Z,74.28
2022-12-03T10:50:35.107Z,74.35
2022-12-03T10:53:02.178Z,74.55
2022-12-03T10:55:37.884Z,74.44
2022-12-03T10:58:04.951Z,74.52
2022-12-03T11:00:34.872Z,74.59
2022-12-03T11:03:01.935Z,74.66
2022-12-03T11:05:29.077Z,75.01
2022-12-03T11:07:57.095Z,74.54
2022-12-03T11:10:24.663Z,73.72
2022-12-03T11:13:44.457Z,74.25
2022-12-03T11:16:12.327Z,74.67
2022-12-03T11:18:39.376Z,74.46
2022-12-03T11:21:11.980Z,74.37
2022-12-03T11:23:44.910Z,74.16
2022-12-03T11:26:18.413Z,74.16
2022-12-03T11:28:46.118Z,73.57
2022-12-03T11:31:37.996Z,73.55
2022-12-03T11:34:17.345Z,73.74
2022-12-03T11:37:12.203Z,74.04
2022-12-03T11:39:45.219Z,74.07
2022-12-03T11:42:27.100Z,74.33
2022-12-03T11:45:06.205Z,74.33
2022-12-03T11:47:45.690Z,73.72
2022-12-03T11:50:27.093Z,73.66
2022-12-03T11:52:58.917Z,73.87
2022-12-03T11:55:30.896Z,73.69
2022-12-03T11:58:04.036Z,73.98
2022-12-03T12:00:31.247Z,73.76
2022-12-03T12:02:59.330Z,73.26
2022-12-03T12:05:35.778Z,73.22
2022-12-03T12:08:03.623Z,72.68
2022-12-03T12:10:47.154Z,73.08
2022-12-03T12:13:32.033Z,73.38
2022-12-03T12:16:00.849Z,72.96
2022-12-03T12:18:43.849Z,72.70
2022-12-03T12:21:48.247Z,72.91
2022-12-03T12:24:43.649Z,73.32
2022-12-03T12:27:15.945Z,73.38
2022-12-03T12:29:48.443Z,73.32
2022-12-03T12:32:18.421Z,73.60
2022-12-03T12:34:48.006Z,73.72
2022-12-03T12:37:34.422Z,73.72
2022-12-03T12:40:10.451Z,73.69
2022-12-03T12:42:43.162Z,73.42
2022-12-03T12:45:21.827Z,73.66
2022-12-03T12:48:07.396Z,73.40
2022-12-03T12:50:34.576Z,73.42
2022-12-03T12:53:21.492Z,73.53
2022-12-03T12:55:49.705Z,73.33
2022-12-03T12:58:19.382Z,73.29
2022-12-03T13:00:51.356Z,73.21
2022-12-03T13:03:21.565Z,73.49
2022-12-03T13:05:50.692Z,73.38
2022-12-03T13:08:32.456Z,73.49
2022-12-03T13:11:01.819Z,73.56
2022-12-03T13:13:44.355Z,73.70
2022-12-03T13:16:31.040Z,73.71
2022-12-03T13:19:02.478Z,73.33
2022-12-03T13:21:41.064Z,73.27
2022-12-03T13:24:39.617Z,73.73
2022-12-03T13:27:19.727Z,73.42
2022-12-03T13:29:51.190Z,73.16
2022-12-03T13:32:27.716Z,73.01
2022-12-03T13:35:04.941Z,73.19
2022-12-03T13:37:32.124Z,73.13
2022-12-03T13:40:09.576Z,73.18
2022-12-03T13:42:39.655Z,73.21
2022-12-03T13:45:15.767Z,73.62
2022-12-03T13:47:44.073Z,73.38
2022-12-03T13:50:22.035Z,73.15
2022-12-03T13:52:49.358Z,73.36
2022-12-03T13:55:25.903Z,73.69
2022-12-03T13:57:53.776Z,73.59
2022-12-03T14:00:20.969Z,73.00
2022-12-03T14:02:48.252Z,73.05
2022-12-03T14:05:15.478Z,72.98
2022-12-03T14:07:42.766Z,72.75
2022-12-03T14:10:12.449Z,72.46
2022-12-03T14:12:39.542Z,72.82
2022-12-03T14:15:07.393Z,73.32
2022-12-03T14:17:34.341Z,73.34
2022-12-03T14:20:01.953Z,73.62
2022-12-03T14:22:29.642Z,73.46
2022-12-03T14:24:57.564Z,73.51
2022-12-03T14:27:25.039Z,73.85
2022-12-03T14:29:52.873Z,73.90
2022-12-03T14:32:20.006Z,74.56
2022-12-03T14:34:48.093Z,74.26
2022-12-03T14:37:15.517Z,74.04
2022-12-03T14:39:42.859Z,74.08
2022-12-03T14:42:16.964Z,73.93
2022-12-03T14:44:49.651Z,73.40
2022-12-03T14:47:19.068Z,73.52
2022-12-03T14:49:46.706Z,73.68
2022-12-03T14:52:13.738Z,73.62
2022-12-03T14:54:44.649Z,73.46
2022-12-03T14:57:13.261Z,73.69
2022-12-03T14:59:44.123Z,73.80
2022-12-03T15:02:12.222Z,73.86
2022-12-03T15:04:41.096Z,73.71
2022-12-03T15:07:08.959Z,73.54
2022-12-03T15:19:20.356Z,72.26
2022-12-03T15:21:47.363Z,72.28
2022-12-03T15:24:14.356Z,72.11
2022-12-03T15:26:41.463Z,71.87
2022-12-03T15:29:08.547Z,71.93
2022-12-03T15:31:35.605Z,71.98
2022-12-03T15:34:04.044Z,72.26
2022-12-03T15:36:31.123Z,72.37
2022-12-03T15:38:58.087Z,72.46
2022-12-03T15:41:29.159Z,72.46
2022-12-03T15:43:58.249Z,72.62
2022-12-03T15:46:26.356Z,72.62
2022-12-03T15:48:54.369Z,72.25
2022-12-03T15:51:21.354Z,72.52
2022-12-03T15:53:48.357Z,72.41
2022-12-03T15:56:15.611Z,71.80
2022-12-03T15:58:42.810Z,71.44
2022-12-03T16:01:10.829Z,71.58
2022-12-03T16:03:37.863Z,71.46
2022-12-03T16:06:05.292Z,71.52
2022-12-03T16:08:32.358Z,71.29
2022-12-03T16:10:59.623Z,71.36
2022-12-03T16:13:26.636Z,71.58
2022-12-03T16:15:53.842Z,71.89
2022-12-03T16:18:20.866Z,71.99
2022-12-03T16:20:48.031Z,72.08
2022-12-03T16:23:15.171Z,72.48
2022-12-03T16:25:42.122Z,72.91
2022-12-03T16:28:09.151Z,72.52
2022-12-03T16:30:36.608Z,72.23
2022-12-03T16:33:03.916Z,72.41
2022-12-03T16:35:30.968Z,71.79
2022-12-03T16:37:57.864Z,71.76
2022-12-03T16:40:24.813Z,71.81
2022-12-03T16:42:51.804Z,71.71
2022-12-03T16:45:21.819Z,71.88
2022-12-03T16:47:50.133Z,71.86
2022-12-03T16:50:24.335Z,72.30
2022-12-03T16:52:54.590Z,71.86
2022-12-03T16:55:21.728Z,71.49
2022-12-03T16:57:48.744Z,71.55
2022-12-03T17:00:16.872Z,71.86
2022-12-03T17:02:44.062Z,71.85
2022-12-03T17:05:11.141Z,71.58
2022-12-03T17:07:38.494Z,71.92
2022-12-03T17:10:06.318Z,71.81
2022-12-03T17:13:07.218Z,72.07
2022-12-03T17:15:20.424Z,71.94
2022-12-03T17:17:47.531Z,72.20
2022-12-03T17:20:14.890Z,72.06
2022-12-03T17:22:42.189Z,71.99
2022-12-03T17:25:10.491Z,72.24
2022-12-03T17:27:43.448Z,71.51
2022-12-03T17:30:12.660Z,71.97
2022-12-03T17:32:39.931Z,72.11
2022-12-03T17:35:07.994Z,72.26
2022-12-03T17:37:35.662Z,72.54
2022-12-03T17:40:04.332Z,73.02
2022-12-03T17:42:31.254Z,73.08
2022-12-03T17:44:58.308Z,72.92
2022-12-03T17:47:25.303Z,73.48
2022-12-03T17:49:52.542Z,72.70
2022-12-03T17:52:19.808Z,72.65
2022-12-03T17:55:10.153Z,73.07
2022-12-03T17:57:33.881Z,72.92
2022-12-03T18:00:00.825Z,73.17
2022-12-03T18:02:27.894Z,72.86
2022-12-03T18:04:54.892Z,72.96
2022-12-03T18:07:21.839Z,72.45
2022-12-03T18:09:48.946Z,72.36
2022-12-03T18:12:15.962Z,72.54
2022-12-03T18:14:43.559Z,72.84
2022-12-03T18:17:11.239Z,72.83
2022-12-03T18:19:38.335Z,72.71
2022-12-03T18:22:05.463Z,72.88
2022-12-03T18:24:32.668Z,73.15
2022-12-03T18:26:59.744Z,73.40
2022-12-03T18:29:29.481Z,73.44
2022-12-03T18:31:56.681Z,73.57
2022-12-03T18:34:23.695Z,73.54
2022-12-03T18:36:50.975Z,73.10
2022-12-03T18:39:26.776Z,73.14
2022-12-03T18:41:54.336Z,73.08
2022-12-03T18:44:21.740Z,73.02
2022-12-03T18:46:53.916Z,72.70
2022-12-03T18:49:22.145Z,72.40
2022-12-03T18:51:53.261Z,72.14
2022-12-03T18:54:23.121Z,72.32
2022-12-03T18:56:50.180Z,72.58
2022-12-03T18:59:17.222Z,73.03
2022-12-03T19:01:44.335Z,73.02
2022-12-03T19:04:11.335Z,72.85
2022-12-03T19:06:38.334Z,73.35
2022-12-03T19:09:05.340Z,73.49
2022-12-03T19:11:34.151Z,73.35
2022-12-03T19:14:03.120Z,73.44
2022-12-03T19:16:30.625Z,73.22
2022-12-03T19:18:58.067Z,73.70
2022-12-03T19:21:27.335Z,73.55
2022-12-03T19:24:23.250Z,73.46
2022-12-03T19:26:45.487Z,73.77
2022-12-03T19:29:12.601Z,73.61
2022-12-03T19:31:39.617Z,73.39
2022-12-03T19:34:06.778Z,72.43
2022-12-03T19:36:33.712Z,72.12
2022-12-03T19:39:01.374Z,71.24
2022-12-03T19:41:30.802Z,71.37
2022-12-03T19:43:58.700Z,71.83
2022-12-03T19:46:28.964Z,71.80
2022-12-03T19:48:56.237Z,72.09
2022-12-03T19:51:34.630Z,72.36
2022-12-03T19:54:06.945Z,72.74
2022-12-03T19:56:35.004Z,72.99
2022-12-03T19:59:02.684Z,73.15
2022-12-03T20:01:32.557Z,72.75
2022-12-03T20:04:01.426Z,73.05
2022-12-03T20:06:31.503Z,73.41
2022-12-03T20:09:09.405Z,73.08
2022-12-03T20:11:36.714Z,73.35
2022-12-03T20:14:06.900Z,73.30
2022-12-03T20:16:34.122Z,73.37
2022-12-03T20:19:07.110Z,73.12
2022-12-03T20:21:36.458Z,73.61
2022-12-03T20:24:04.150Z,73.43
2022-12-03T20:26:31.283Z,72.97
2022-12-03T20:28:58.304Z,72.82
2022-12-03T20:31:28.186Z,72.21
2022-12-03T20:33:58.079Z,71.88
2022-12-03T20:36:26.238Z,71.43
2022-12-03T20:38:58.255Z,71.14
2022-12-03T20:41:25.349Z,71.21
2022-12-03T20:43:53.247Z,70.92
2022-12-03T20:46:23.576Z,71.03
2022-12-03T20:48:50.595Z,71.25
2022-12-03T20:51:19.976Z,71.77
2022-12-03T20:53:47.742Z,71.48
2022-12-03T20:56:20.384Z,71.76
2022-12-03T20:58:49.173Z,71.82
2022-12-03T21:01:23.501Z,71.89
2022-12-03T21:03:52.068Z,72.04
2022-12-03T21:06:19.873Z,72.64
2022-12-03T21:08:47.038Z,72.73
2022-12-03T21:11:19.483Z,73.19
2022-12-03T21:13:47.483Z,73.03
2022-12-03T21:16:18.166Z,72.95
2022-12-03T21:18:45.314Z,72.74
2022-12-03T21:21:15.525Z,71.48
2022-12-03T21:23:43.711Z,71.85
2022-12-03T21:26:16.456Z,72.30
2022-12-03T21:28:45.378Z,72.06
2022-12-03T21:31:18.071Z,72.02
2022-12-03T21:33:45.572Z,71.92
2022-12-03T21:36:15.956Z,71.32
2022-12-03T21:38:43.923Z,71.48
2022-12-03T21:41:11.532Z,71.08
2022-12-03T21:43:38.671Z,71.58
2022-12-03T21:47:10.360Z,71.28
2022-12-03T21:48:54.853Z,70.98
2022-12-03T21:51:21.759Z,71.21
2022-12-03T21:53:48.919Z,71.78
2022-12-03T21:56:17.947Z,71.69
2022-12-03T21:58:45.928Z,71.86
2022-12-03T22:01:21.999Z,71.91
2022-12-03T22:03:49.328Z,71.71
2022-12-03T22:06:17.121Z,71.98
2022-12-03T22:08:44.495Z,72.11
2022-12-03T22:11:15.159Z,72.14
2022-12-03T22:13:42.259Z,71.69
2022-12-03T22:16:12.699Z,71.84
2022-12-03T22:18:39.820Z,71.80
2022-12-03T22:21:08.894Z,71.86
2022-12-03T22:23:36.014Z,71.98
2022-12-03T22:26:05.927Z,72.25
2022-12-03T22:28:34.473Z,71.64
2022-12-03T22:31:06.844Z,71.56
2022-12-03T22:33:35.398Z,72.03
2022-12-03T22:36:05.720Z,71.85
2022-12-03T22:38:33.035Z,72.32
2022-12-03T22:41:00.326Z,72.71
2022-12-03T22:43:27.255Z,72.40
2022-12-03T22:45:55.702Z,72.89
2022-12-03T22:48:23.942Z,73.21
2022-12-03T22:50:52.938Z,73.15
2022-12-03T22:53:20.250Z,72.87
2022-12-03T22:55:58.359Z,73.45
2022-12-03T22:58:26.609Z,73.56
2022-12-03T23:00:57.328Z,73.63
2022-12-03T23:03:26.753Z,72.76
2022-12-03T23:05:53.907Z,72.50
2022-12-03T23:08:21.749Z,72.42
2022-12-03T23:10:52.166Z,72.90
2022-12-03T23:13:20.230Z,72.75
2022-12-03T23:15:52.574Z,72.96
2022-12-03T23:18:20.469Z,73.63
2022-12-03T23:20:52.475Z,73.80
2022-12-03T23:23:21.692Z,73.39
2022-12-03T23:26:09.195Z,72.59
2022-12-03T23:28:38.915Z,72.27
2022-12-03T23:31:06.161Z,72.36
2022-12-03T23:33:38.108Z,73.00
2022-12-03T23:36:06.513Z,72.74
2022-12-03T23:38:33.709Z,72.50
2022-12-03T23:41:12.385Z,72.21
2022-12-03T23:43:40.134Z,72.86
2022-12-03T23:46:16.982Z,73.21
2022-12-03T23:48:44.174Z,72.47
2022-12-03T23:51:15.517Z,72.91
2022-12-03T23:53:43.054Z,72.72
2022-12-03T23:56:13.055Z,73.69
2022-12-03T23:58:40.358Z,73.63
